Time;durP1;ratioP1;P1;durP2;ratioP2;P2;SDS_P1;SDS_P2;PMS_P1;PMS_P2;Temp;Humidity;BMP_temperature;BMP_pressure;BME280_temperature;BME280_humidity;BME280_pressure;Samples;Min_cycle;Max_cycle;Signal;HPM_P1;HPM_P2
2021/09/12 00:00:48;;;;;;;19.55;17.55;;;;;;;16.99;84.72;101140.79;1786283;79;21062;-92
2021/09/12 00:03:14;;;;;;;21.75;19.62;;;;;;;16.99;84.75;101135.92;1786282;79;20995;-91
2021/09/12 00:05:41;;;;;;;21.97;18.85;;;;;;;16.97;84.78;101132.34;1786170;78;21603;-91
2021/09/12 00:08:08;;;;;;;18.98;17.12;;;;;;;16.95;84.84;101129.70;1786463;79;21010;-92
2021/09/12 00:10:35;;;;;;;19.77;17.75;;;;;;;16.95;84.94;101135.02;1785762;79;21725;-84
2021/09/12 00:13:04;;;;;;;19.55;17.55;;;;;;;16.96;85.05;101131.91;1786078;79;21022;-91
2021/09/12 00:15:30;;;;;;;19.00;16.85;;;;;;;16.97;85.09;101132.34;1786732;79;21500;-92
2021/09/12 00:17:57;;;;;;;22.02;17.12;;;;;;;16.98;85.11;101127.48;1786160;79;21074;-84
2021/09/12 00:20:23;;;;;;;20.30;17.12;;;;;;;16.96;85.09;101120.81;1786009;79;21023;-85
2021/09/12 00:22:50;;;;;;;18.40;16.50;;;;;;;16.95;85.02;101123.47;1785739;80;21740;-85
2021/09/12 00:25:17;;;;;;;18.07;16.30;;;;;;;16.92;85.02;101120.81;1785713;79;21015;-85
2021/09/12 00:27:43;;;;;;;19.32;17.32;;;;;;;16.89;85.06;101113.69;1785846;80;21050;-85
2021/09/12 00:30:12;;;;;;;19.32;16.65;;;;;;;16.87;85.07;101115.45;1785827;80;21516;-85
2021/09/12 00:32:45;;;;;;;18.30;16.50;;;;;;;16.85;85.08;101125.20;1785804;79;21575;-85
2021/09/12 00:35:13;;;;;;;19.62;17.23;;;;;;;16.82;85.05;101123.42;1785895;80;21829;-84
2021/09/12 00:37:53;;;;;;;19.70;17.85;;;;;;;16.79;85.18;101122.48;1771855;80;21063;-85
2021/09/12 00:40:23;;;;;;;21.23;18.20;;;;;;;16.77;85.15;101131.77;1783290;79;21062;-85
2021/09/12 00:42:50;;;;;;;18.42;16.48;;;;;;;16.74;85.24;101129.08;1797968;79;21015;-86
2021/09/12 00:45:17;;;;;;;20.15;18.05;;;;;;;16.70;85.32;101125.55;1785900;79;21097;-84
2021/09/12 00:47:46;;;;;;;20.08;17.87;;;;;;;16.69;85.38;101126.86;1785903;79;21115;-85
2021/09/12 00:50:14;;;;;;;21.57;19.23;;;;;;;16.67;85.36;101127.30;1785287;79;21067;-85
2021/09/12 00:52:44;;;;;;;19.67;17.77;;;;;;;16.63;85.33;101127.72;1785496;80;21046;-84
2021/09/12 00:55:12;;;;;;;19.85;17.75;;;;;;;16.60;85.46;101132.12;1772437;80;21535;-84
2021/09/12 00:57:41;;;;;;;20.23;18.23;;;;;;;16.58;85.50;101137.42;1785451;79;21046;-83
2021/09/12 01:00:10;;;;;;;19.45;17.35;;;;;;;16.54;85.45;101133.42;1772019;80;22441;-83
2021/09/12 01:02:37;;;;;;;19.82;17.80;;;;;;;16.50;85.50;101141.80;1785244;79;21579;-83
2021/09/12 01:05:07;;;;;;;20.05;18.00;;;;;;;16.47;85.48;101142.66;1785219;79;21049;-84
2021/09/12 01:07:34;;;;;;;20.32;17.32;;;;;;;16.46;85.50;101147.53;1785233;79;21552;-83
2021/09/12 01:10:03;;;;;;;20.35;18.15;;;;;;;16.43;85.49;101145.30;1785387;80;20995;-84
2021/09/12 01:12:31;;;;;;;18.23;16.42;;;;;;;16.38;85.46;101141.25;1785303;79;21756;-84
2021/09/12 01:14:57;;;;;;;19.65;17.27;;;;;;;16.35;85.44;101145.24;1785359;79;21038;-83
2021/09/12 01:17:33;;;;;;;21.33;17.85;;;;;;;16.30;85.46;101143.86;1785688;80;21069;-83
2021/09/12 01:20:00;;;;;;;19.80;17.80;;;;;;;16.29;85.46;101147.41;1785266;79;21639;-84
2021/09/12 01:22:27;;;;;;;19.17;17.17;;;;;;;16.26;85.47;101147.82;1785981;79;21117;-85
2021/09/12 01:24:53;;;;;;;18.77;16.85;;;;;;;16.21;85.49;101142.91;1799131;79;21850;-86
2021/09/12 01:27:20;;;;;;;24.43;20.82;;;;;;;16.19;85.57;101139.34;1785870;79;21324;-86
2021/09/12 01:29:47;;;;;;;23.80;21.30;;;;;;;16.16;85.57;101137.57;1785987;79;21044;-86
2021/09/12 01:32:14;;;;;;;26.77;21.20;;;;;;;16.13;85.62;101142.39;1786049;79;21285;-85
2021/09/12 01:34:40;;;;;;;22.75;18.90;;;;;;;16.10;85.68;101141.06;1786874;79;20999;-92
2021/09/12 01:37:07;;;;;;;21.00;18.75;;;;;;;16.09;85.67;101136.61;1786679;79;21735;-92
2021/09/12 01:40:01;;;;;;;19.62;17.52;;;;;;;16.08;85.67;101136.59;1786745;79;21086;-92
2021/09/12 01:42:28;;;;;;;21.68;18.82;;;;;;;16.05;85.71;101133.94;1786740;79;28735;-92
2021/09/12 01:44:54;;;;;;;19.73;17.62;;;;;;;16.03;85.73;101135.24;1786443;79;21027;-92
2021/09/12 01:47:21;;;;;;;22.07;19.62;;;;;;;16.00;85.74;101136.98;1786357;79;21046;-92
2021/09/12 01:49:48;;;;;;;21.73;19.15;;;;;;;15.99;85.74;101139.16;1786356;79;21743;-92
2021/09/12 01:52:15;;;;;;;19.15;17.02;;;;;;;15.94;85.71;101144.00;1786250;79;21476;-92
2021/09/12 01:54:42;;;;;;;23.12;18.27;;;;;;;15.90;85.67;101138.22;1786588;79;21516;-91
2021/09/12 01:57:09;;;;;;;19.30;17.30;;;;;;;15.89;85.73;101148.81;1786040;79;21058;-84
2021/09/12 01:59:35;;;;;;;19.48;17.48;;;;;;;15.86;85.67;101148.77;1785758;79;21015;-84
2021/09/12 02:02:03;;;;;;;22.67;17.73;;;;;;;15.83;85.76;101143.46;1785842;80;22540;-85
2021/09/12 02:04:29;;;;;;;23.47;17.17;;;;;;;15.80;85.73;101145.63;1785832;78;21038;-84
2021/09/12 02:06:56;;;;;;;21.02;18.92;;;;;;;15.78;85.73;101143.84;1787406;79;20988;-84
2021/09/12 02:09:26;;;;;;;19.50;17.50;;;;;;;15.75;85.72;101150.02;1787570;79;21044;-84
2021/09/12 02:11:52;;;;;;;19.82;17.50;;;;;;;15.71;85.70;101142.84;1787868;79;20999;-84
2021/09/12 02:14:19;;;;;;;18.62;16.65;;;;;;;15.68;85.79;101146.37;1787595;79;21775;-84
2021/09/12 02:16:48;;;;;;;17.75;16.05;;;;;;;15.66;85.88;101146.79;1787743;80;21038;-84
2021/09/12 02:19:15;;;;;;;18.35;16.45;;;;;;;15.64;85.88;101143.68;1787748;79;21027;-85
2021/09/12 02:21:41;;;;;;;16.67;14.95;;;;;;;15.61;85.91;101146.29;1787609;79;21565;-85
2021/09/12 02:24:08;;;;;;;17.52;15.60;;;;;;;15.59;85.94;101136.98;1787834;79;21081;-85
2021/09/12 02:26:35;;;;;;;17.73;15.50;;;;;;;15.55;85.96;101145.34;1787796;79;21734;-85
2021/09/12 02:29:02;;;;;;;19.23;17.27;;;;;;;15.53;86.05;101139.13;1787698;80;21059;-85
2021/09/12 02:31:28;;;;;;;19.70;17.70;;;;;;;15.52;86.15;101139.11;1787851;80;21042;-85
2021/09/12 02:33:58;;;;;;;22.13;18.90;;;;;;;15.51;86.24;101140.88;1787868;79;21003;-85
2021/09/12 02:36:25;;;;;;;21.55;17.98;;;;;;;15.52;86.50;101140.44;1787943;79;21547;-86
2021/09/12 02:38:51;;;;;;;21.52;19.05;;;;;;;15.55;86.67;101141.36;1788085;79;21799;-91
2021/09/12 02:41:18;;;;;;;20.85;18.62;;;;;;;15.59;86.76;101140.08;1788403;79;20995;-91
2021/09/12 02:43:45;;;;;;;20.80;18.73;;;;;;;15.63;86.81;101134.80;1788336;80;21567;-92
2021/09/12 02:46:12;;;;;;;20.10;18.07;;;;;;;15.64;86.80;101141.02;1788520;79;21521;-91
2021/09/12 02:48:39;;;;;;;20.52;18.42;;;;;;;15.66;86.85;101137.95;1788466;79;21050;-92
2021/09/12 02:51:05;;;;;;;21.50;19.32;;;;;;;15.68;86.92;101142.83;1788600;79;21744;-90
2021/09/12 02:53:32;;;;;;;22.25;19.85;;;;;;;15.69;86.92;101144.59;1788551;80;21568;-90
2021/09/12 02:55:59;;;;;;;22.35;19.92;;;;;;;15.70;87.04;101140.63;1788547;80;20990;-90
2021/09/12 02:58:26;;;;;;;21.85;19.25;;;;;;;15.72;87.10;101138.87;1788374;80;21043;-91
2021/09/12 03:00:52;;;;;;;21.80;19.50;;;;;;;15.74;87.17;101139.81;1788574;79;21010;-89
2021/09/12 03:03:19;;;;;;;22.50;19.42;;;;;;;15.78;87.28;101138.53;1788559;79;21637;-90
2021/09/12 03:05:46;;;;;;;23.32;20.95;;;;;;;15.81;87.27;101141.23;1782853;79;20999;-93
2021/09/12 03:08:13;;;;;;;24.63;19.95;;;;;;;15.82;87.32;101141.25;1778393;80;21086;-92
2021/09/12 03:10:39;;;;;;;22.10;19.90;;;;;;;15.84;87.36;101138.17;1778160;80;21042;-86
2021/09/12 03:13:06;;;;;;;21.05;18.85;;;;;;;15.86;87.35;101143.05;1778071;80;21004;-86
2021/09/12 03:15:33;;;;;;;22.05;19.73;;;;;;;15.89;87.41;101140.41;1777911;80;21723;-85
2021/09/12 03:17:59;;;;;;;24.57;21.15;;;;;;;15.90;87.45;101131.58;1777816;80;21019;-86
2021/09/12 03:20:26;;;;;;;27.60;20.15;;;;;;;15.94;87.47;101133.38;1778245;80;21528;-90
2021/09/12 03:22:53;;;;;;;21.33;19.02;;;;;;;15.96;87.42;101133.84;1778189;80;21097;-91
2021/09/12 03:25:20;;;;;;;21.55;19.15;;;;;;;15.96;87.35;101130.75;1778025;80;21007;-85
2021/09/12 03:27:46;;;;;;;21.17;19.00;;;;;;;15.96;87.35;101132.52;1777766;80;22372;-86
2021/09/12 03:30:14;;;;;;;22.65;20.23;;;;;;;15.98;87.39;101136.08;1777801;80;20999;-86
2021/09/12 03:32:41;;;;;;;21.90;19.65;;;;;;;16.00;87.48;101125.03;1777651;80;21019;-86
2021/09/12 03:35:08;;;;;;;20.97;18.85;;;;;;;16.02;87.45;101121.50;1777932;80;21035;-86
2021/09/12 03:37:35;;;;;;;22.65;18.65;;;;;;;16.03;87.28;101104.70;1777835;80;21121;-87
2021/09/12 03:40:02;;;;;;;20.55;18.42;;;;;;;16.06;87.29;101105.16;1777932;80;21824;-87
2021/09/12 03:42:28;;;;;;;21.33;19.05;;;;;;;16.09;87.33;101115.37;1777898;80;21030;-87
2021/09/12 03:44:55;;;;;;;23.92;19.23;;;;;;;16.11;87.25;101113.61;1778222;80;21616;-92
2021/09/12 03:47:22;;;;;;;20.75;18.65;;;;;;;16.15;87.26;101117.63;1778067;80;21686;-87
2021/09/12 03:49:49;;;;;;;22.42;19.67;;;;;;;16.18;87.29;101117.22;1778421;80;21583;-92
2021/09/12 03:53:19;;;;;;;19.98;17.92;;;;;;;16.22;87.27;101117.69;1778538;80;21726;-91
2021/09/12 03:55:46;;;;;;;22.50;18.82;;;;;;;16.26;87.33;101127.45;1778595;80;21003;-90
2021/09/12 03:58:13;;;;;;;20.88;18.48;;;;;;;16.33;87.28;101123.09;1778392;80;21057;-91
2021/09/12 04:00:39;;;;;;;21.75;18.82;;;;;;;16.36;87.25;101127.08;1778384;80;21035;-90
2021/09/12 04:03:06;;;;;;;20.88;18.67;;;;;;;16.39;87.18;101135.08;1778440;80;21190;-92
2021/09/12 04:05:33;;;;;;;22.62;17.82;;;;;;;16.43;87.19;101125.37;1778378;80;21791;-90
2021/09/12 04:08:00;;;;;;;20.52;18.42;;;;;;;16.46;87.17;101130.68;1778035;80;21011;-90
2021/09/12 04:10:27;;;;;;;19.80;17.80;;;;;;;16.50;87.18;101125.86;1778387;80;21078;-91
2021/09/12 04:12:53;;;;;;;21.42;18.27;;;;;;;16.56;87.27;101125.02;1778609;80;21020;-91
2021/09/12 04:15:20;;;;;;;19.67;17.60;;;;;;;16.61;87.28;101126.82;1778663;80;20975;-91
2021/09/12 04:21:38;;;;;;;20.25;18.00;;;;;;;16.74;87.25;101126.88;1778314;79;21003;-91
2021/09/12 04:24:05;;;;;;;19.82;17.80;;;;;;;16.80;87.09;101125.16;1778491;80;21075;-92
2021/09/12 04:26:32;;;;;;;19.57;17.42;;;;;;;16.83;87.03;101122.52;1791826;80;21031;-92
2021/09/12 04:29:01;;;;;;;20.17;17.20;;;;;;;16.87;86.85;101123.43;1778633;80;21038;-92
2021/09/12 04:31:28;;;;;;;18.40;16.50;;;;;;;16.87;86.70;101117.70;1778712;80;21792;-91
2021/09/12 04:33:56;;;;;;;18.92;16.95;;;;;;;16.89;86.66;101120.34;1778605;80;21039;-92
2021/09/12 04:36:23;;;;;;;19.02;16.62;;;;;;;16.90;86.60;101121.68;1778841;80;21509;-92
2021/09/12 04:38:49;;;;;;;19.15;17.05;;;;;;;16.99;86.85;101112.87;1778910;80;21078;-92
2021/09/12 04:41:16;;;;;;;18.75;16.75;;;;;;;17.16;87.11;101111.61;1778427;80;20960;-92
2021/09/12 04:43:43;;;;;;;22.52;17.92;;;;;;;17.29;86.65;101118.74;1778180;80;21739;-92
2021/09/12 04:46:10;;;;;;;20.30;16.05;;;;;;;17.32;86.27;101115.19;1778575;80;21055;-92
2021/09/12 04:48:37;;;;;;;18.92;16.65;;;;;;;17.32;86.07;101110.32;1778484;80;21031;-91
2021/09/12 04:51:03;;;;;;;20.40;16.77;;;;;;;17.33;86.01;101112.11;1778641;80;21016;-91
2021/09/12 04:53:30;;;;;;;19.73;17.25;;;;;;;17.35;85.91;101107.68;1778384;80;21043;-91
2021/09/12 04:55:57;;;;;;;17.73;15.98;;;;;;;17.39;85.93;101105.47;1778417;80;22600;-92
2021/09/12 04:58:24;;;;;;;17.73;15.85;;;;;;;17.48;86.08;101098.84;1785035;79;21043;-92
2021/09/12 05:00:50;;;;;;;14.90;13.48;;;;;;;17.56;85.75;101102.39;1795669;79;21000;-92
2021/09/12 05:03:17;;;;;;;16.65;14.93;;;;;;;17.53;85.31;101101.08;1795746;79;20999;-92
2021/09/12 05:05:44;;;;;;;15.83;14.23;;;;;;;17.51;85.20;101105.93;1795375;79;21062;-90
2021/09/12 05:08:10;;;;;;;14.75;13.25;;;;;;;17.53;85.31;101096.17;1795686;79;21783;-92
2021/09/12 05:10:37;;;;;;;14.83;13.30;;;;;;;17.59;85.46;101093.09;1795441;79;21055;-91
2021/09/12 05:13:04;;;;;;;14.65;13.25;;;;;;;17.70;85.58;101101.11;1795533;79;21063;-92
2021/09/12 05:15:30;;;;;;;13.28;11.97;;;;;;;17.79;85.42;101108.19;1795652;79;21007;-92
2021/09/12 05:17:57;;;;;;;14.30;12.68;;;;;;;17.84;85.12;101106.02;1795623;79;20980;-91
2021/09/12 05:20:24;;;;;;;13.95;12.55;;;;;;;17.85;84.97;101105.59;1795852;79;21750;-91
2021/09/12 05:22:51;;;;;;;14.58;12.95;;;;;;;17.88;84.93;101114.89;1795650;79;21066;-92
2021/09/12 05:25:17;;;;;;;14.65;13.28;;;;;;;17.90;84.75;101117.11;1797402;79;21035;-91
2021/09/12 05:27:44;;;;;;;15.83;13.10;;;;;;;17.90;84.66;101118.89;1802605;79;21624;-89
2021/09/12 05:30:11;;;;;;;17.60;14.60;;;;;;;17.91;84.61;101119.36;1802812;79;21047;-92
2021/09/12 05:32:38;;;;;;;14.83;13.00;;;;;;;17.96;84.70;101117.14;1802663;79;21733;-93
2021/09/12 05:35:05;;;;;;;15.75;13.98;;;;;;;18.02;84.66;101109.59;1802496;79;21066;-94
2021/09/12 05:37:32;;;;;;;17.15;15.03;;;;;;;18.04;84.52;101108.69;1802667;79;21050;-94
2021/09/12 05:39:59;;;;;;;16.80;14.55;;;;;;;18.08;84.45;101116.24;1802543;79;21023;-93
2021/09/12 05:42:26;;;;;;;17.45;15.58;;;;;;;18.13;84.47;101112.23;1802466;79;21081;-92
2021/09/12 05:44:53;;;;;;;17.90;15.23;;;;;;;18.16;84.42;101112.23;1802692;79;21703;-93
2021/09/12 05:47:19;;;;;;;16.37;14.65;;;;;;;18.20;84.39;101106.89;1802782;79;20988;-94
2021/09/12 05:49:46;;;;;;;17.35;15.55;;;;;;;18.23;84.32;101108.69;1802811;79;21020;-91
2021/09/12 05:52:13;;;;;;;16.97;15.25;;;;;;;18.28;84.43;101102.01;1802439;79;21014;-91
2021/09/12 05:54:39;;;;;;;17.65;15.85;;;;;;;18.32;84.28;101109.10;1802644;79;21014;-90
2021/09/12 05:57:06;;;;;;;18.62;16.73;;;;;;;18.33;84.19;101098.91;1802227;79;21686;-92
2021/09/12 05:59:33;;;;;;;16.82;15.03;;;;;;;18.36;84.21;101095.79;1802085;79;21031;-85
2021/09/12 06:02:00;;;;;;;19.50;16.73;;;;;;;18.40;84.10;101096.67;1801168;79;20995;-90
2021/09/12 06:04:26;;;;;;;18.37;16.57;;;;;;;18.43;84.17;101096.23;1802254;79;21067;-92
2021/09/12 06:06:53;;;;;;;13.83;12.43;;;;;;;18.51;84.13;101099.33;1801946;79;21540;-93
2021/09/12 06:09:20;;;;;;;19.60;15.78;;;;;;;18.58;84.20;101101.06;1801832;79;21864;-92
2021/09/12 06:11:46;;;;;;;18.00;16.20;;;;;;;18.69;84.19;101103.25;1801992;79;21086;-91
2021/09/12 06:14:13;;;;;;;17.37;15.58;;;;;;;18.76;83.98;101106.80;1802012;79;20988;-92
2021/09/12 06:16:40;;;;;;;18.37;16.48;;;;;;;18.85;83.88;101109.48;1801765;79;21026;-91
2021/09/12 06:19:06;;;;;;;19.00;15.78;;;;;;;18.93;83.77;101105.45;1801972;79;21031;-92
2021/09/12 06:21:33;;;;;;;17.07;15.20;;;;;;;19.01;83.68;101105.88;1801910;79;21736;-92
2021/09/12 06:24:00;;;;;;;17.87;15.90;;;;;;;19.08;83.57;101107.17;1801774;79;20999;-92
2021/09/12 06:26:27;;;;;;;17.02;15.23;;;;;;;19.12;83.33;101110.25;1801746;79;21023;-91
2021/09/12 06:28:53;;;;;;;16.32;14.65;;;;;;;19.17;83.21;101105.80;1801748;79;20997;-91
2021/09/12 06:31:21;;;;;;;15.38;13.85;;;;;;;19.23;83.22;101112.42;1809918;77;21056;-93
2021/09/12 06:33:47;;;;;;;16.90;15.15;;;;;;;19.29;83.23;101109.72;1804427;79;21752;-94
2021/09/12 06:36:16;;;;;;;16.85;15.18;;;;;;;19.40;83.15;101107.87;1804615;79;21083;-93
2021/09/12 06:38:42;;;;;;;16.85;15.20;;;;;;;19.50;83.10;101112.73;1804695;79;21028;-93
2021/09/12 06:41:09;;;;;;;16.62;14.85;;;;;;;19.66;83.05;101108.63;1790514;79;21048;-92
2021/09/12 06:43:36;;;;;;;16.62;14.93;;;;;;;19.85;82.91;101108.95;1788439;80;21084;-92
2021/09/12 06:46:02;;;;;;;16.37;13.62;;;;;;;19.98;82.62;101107.08;1788411;80;21683;-91
2021/09/12 06:48:29;;;;;;;16.87;15.18;;;;;;;20.11;82.33;101110.55;1788205;80;21099;-90
2021/09/12 06:50:57;;;;;;;17.80;15.88;;;;;;;20.18;82.01;101105.13;1788171;80;21088;-87
2021/09/12 06:53:26;;;;;;;16.42;14.45;;;;;;;20.26;81.88;101105.05;1788458;80;21468;-94
2021/09/12 06:55:54;;;;;;;15.13;13.50;;;;;;;20.34;81.45;101103.64;1788521;80;21017;-94
2021/09/12 06:58:23;;;;;;;17.17;15.40;;;;;;;20.50;81.64;101097.70;1788471;80;21766;-96
2021/09/12 07:00:50;;;;;;;14.38;12.98;;;;;;;20.70;81.61;101091.72;1788011;80;21108;-91
2021/09/12 07:03:16;;;;;;;15.72;14.13;;;;;;;20.90;81.24;101091.92;1788224;78;20998;-91
2021/09/12 07:05:43;;;;;;;14.47;13.03;;;;;;;21.05;80.97;101094.40;1788332;80;21027;-93
2021/09/12 07:08:11;;;;;;;14.07;12.78;;;;;;;21.19;80.52;101089.31;1775289;80;21080;-93
2021/09/12 07:10:38;;;;;;;15.18;13.38;;;;;;;21.28;80.15;101099.44;1775613;80;21795;-93
2021/09/12 07:13:06;;;;;;;14.50;13.03;;;;;;;21.30;79.74;101092.73;1774396;80;21574;-93
2021/09/12 07:15:33;;;;;;;15.25;13.28;;;;;;;21.33;79.58;101094.91;1775435;79;21563;-91
2021/09/12 07:17:59;;;;;;;13.35;11.97;;;;;;;21.36;79.46;101092.20;1775753;80;21088;-92
2021/09/12 07:20:26;;;;;;;13.60;12.23;;;;;;;21.35;79.01;101094.44;1775766;80;21060;-91
2021/09/12 07:22:53;;;;;;;14.30;12.80;;;;;;;21.32;79.01;101102.53;1795089;79;22542;-91
2021/09/12 07:25:19;;;;;;;13.20;11.85;;;;;;;21.38;79.08;101100.22;1791033;79;21595;-91
2021/09/12 07:27:46;;;;;;;13.65;12.28;;;;;;;21.48;79.07;101099.20;1776235;80;21037;-93
2021/09/12 07:30:13;;;;;;;12.70;11.40;;;;;;;21.57;78.91;101096.85;1775864;80;21097;-93
2021/09/12 07:32:41;;;;;;;12.68;11.05;;;;;;;21.65;78.84;101098.08;1777177;80;21034;-94
2021/09/12 07:35:09;;;;;;;12.63;11.28;;;;;;;21.81;78.97;101095.59;1789265;79;21803;-94
2021/09/12 07:37:35;;;;;;;12.25;11.00;;;;;;;22.43;78.73;101098.55;1808042;79;20982;-93
2021/09/12 07:40:03;;;;;;;11.80;10.70;;;;;;;22.43;78.73;101098.55;1808262;79;21120;-95
2021/09/12 07:42:30;;;;;;;10.78;9.73;;;;;;;22.58;78.13;101094.27;1807812;79;20986;-94
2021/09/12 07:44:56;;;;;;;12.00;10.72;;;;;;;22.78;77.67;101111.30;1808315;79;21053;-94
2021/09/12 07:47:23;;;;;;;10.65;9.60;;;;;;;22.86;77.04;101116.52;1807976;79;21727;-91
2021/09/12 07:49:49;;;;;;;10.60;9.55;;;;;;;22.92;76.69;101115.07;1807910;79;21070;-91
2021/09/12 07:52:17;;;;;;;10.88;9.83;;;;;;;22.81;76.15;101090.25;1807501;79;21018;-94
2021/09/12 07:54:43;;;;;;;12.50;10.55;;;;;;;23.00;75.92;101121.16;1807753;79;21014;-92
2021/09/12 07:57:10;;;;;;;12.20;10.15;;;;;;;23.02;75.55;101117.09;1807931;79;20998;-92
2021/09/12 07:59:37;;;;;;;9.73;8.63;;;;;;;23.21;75.88;101122.53;1807861;79;21728;-93
2021/09/12 08:02:03;;;;;;;11.33;9.88;;;;;;;23.46;75.59;101115.27;1807894;79;21768;-92
2021/09/12 08:04:30;;;;;;;12.43;11.22;;;;;;;23.67;74.75;101114.79;1807834;79;21542;-93
2021/09/12 08:06:57;;;;;;;11.22;10.00;;;;;;;23.72;73.38;101120.51;1811812;78;21014;-89
2021/09/12 08:09:26;;;;;;;11.05;10.03;;;;;;;23.64;72.93;101116.66;1811960;78;21068;-89
2021/09/12 08:11:56;;;;;;;11.25;9.43;;;;;;;23.60;72.63;101121.22;1820217;78;22583;-95
2021/09/12 08:14:27;;;;;;;11.63;10.53;;;;;;;23.45;72.01;101121.11;1820231;78;21038;-91
2021/09/12 08:16:53;;;;;;;10.20;8.63;;;;;;;23.27;71.82;101114.36;1819355;78;21057;-91
2021/09/12 08:19:20;;;;;;;9.68;8.73;;;;;;;23.08;71.64;101112.97;1820133;78;21036;-88
2021/09/12 08:21:47;;;;;;;9.55;7.80;;;;;;;22.97;71.63;101110.47;1820180;78;21044;-90
2021/09/12 08:24:13;;;;;;;9.75;8.85;;;;;;;22.89;71.69;101115.12;1816999;78;21710;-91
2021/09/12 08:26:43;;;;;;;10.60;9.28;;;;;;;22.88;71.56;101121.39;1814215;79;21052;-93
2021/09/12 08:29:12;;;;;;;10.40;8.63;;;;;;;22.87;71.74;101114.27;1814000;79;21568;-91
2021/09/12 08:31:47;;;;;;;9.35;8.45;;;;;;;22.91;71.49;101111.48;1742899;81;21513;-96
2021/09/12 08:34:17;;;;;;;8.53;7.65;;;;;;;23.02;71.54;101116.63;1813988;79;20971;-88
2021/09/12 08:36:44;;;;;;;8.43;7.70;;;;;;;23.29;71.74;101116.98;1742436;82;21767;-93
2021/09/12 08:39:11;;;;;;;10.78;7.10;;;;;;;23.62;71.41;101114.00;1801609;79;21034;-93
2021/09/12 08:41:38;;;;;;;7.12;6.53;;;;;;;23.98;71.06;101105.13;1847178;77;21046;-94
2021/09/12 08:44:28;;;;;;;7.62;6.45;;;;;;;24.29;70.45;101093.56;1826502;77;20932;-95
2021/09/12 08:46:51;;;;;;;5.67;5.17;;;;;;;24.54;69.86;101097.40;1833927;77;21041;-89
2021/09/12 08:49:18;;;;;;;7.90;6.05;;;;;;;24.70;68.88;101094.27;1815266;78;21695;-91
2021/09/12 08:55:44;;;;;;;6.10;5.08;;;;;;;24.80;68.03;101098.02;1820123;78;21038;-95
2021/09/12 08:58:11;;;;;;;7.83;6.67;;;;;;;24.92;67.28;101102.16;1820392;78;21546;-96
2021/09/12 09:00:44;;;;;;;7.42;5.95;;;;;;;25.01;66.88;101101.02;1765714;78;21049;-94
2021/09/12 09:03:11;;;;;;;5.83;5.30;;;;;;;25.00;66.58;101094.75;1818316;78;21764;-94
2021/09/12 09:05:42;;;;;;;6.17;5.55;;;;;;;25.14;66.49;101102.88;1820759;78;21096;-96
2021/09/12 09:08:14;;;;;;;5.95;5.00;;;;;;;25.14;66.12;101101.53;1817591;78;21061;-94
2021/09/12 09:10:50;;;;;;;6.62;6.03;;;;;;;25.08;65.74;101099.03;1820402;78;21115;-95
2021/09/12 09:13:35;;;;;;;6.60;5.62;;;;;;;25.00;65.55;101097.45;1791640;78;21049;-95
2021/09/12 09:16:12;;;;;;;6.20;5.33;;;;;;;24.93;65.60;101090.47;1792268;78;21739;-94
2021/09/12 09:18:42;;;;;;;8.15;5.60;;;;;;;24.83;65.34;101098.37;1814581;78;21018;-93
2021/09/12 09:21:27;;;;;;;6.75;6.15;;;;;;;24.68;65.44;101098.34;1820895;78;21091;-92
2021/09/12 09:24:13;;;;;;;6.05;5.50;;;;;;;24.68;65.50;101096.12;1820061;78;21088;-93
2021/09/12 09:26:43;;;;;;;5.75;5.15;;;;;;;24.65;65.26;101097.11;1820747;78;20997;-93
2021/09/12 09:29:11;;;;;;;7.85;6.17;;;;;;;24.67;65.33;101097.08;1820541;78;21745;-93
2021/09/12 09:31:38;;;;;;;9.63;5.85;;;;;;;24.76;65.35;101096.34;1820422;78;21060;-94
2021/09/12 09:34:18;;;;;;;6.25;5.65;;;;;;;24.90;65.32;101095.94;1820639;78;21025;-94
2021/09/12 09:36:49;;;;;;;6.37;5.47;;;;;;;25.15;65.39;101092.06;1819259;78;21029;-93
2021/09/12 09:39:36;;;;;;;6.42;5.80;;;;;;;25.44;64.90;101097.05;1820593;78;21096;-93
2021/09/12 09:42:03;;;;;;;5.85;5.10;;;;;;;25.60;64.41;101089.34;1815738;78;21735;-92
2021/09/12 09:44:30;;;;;;;6.75;5.12;;;;;;;25.79;64.31;101093.70;1820303;78;21526;-93
2021/09/12 09:46:59;;;;;;;7.03;5.45;;;;;;;26.03;63.83;101092.48;1820971;78;20994;-93
2021/09/12 09:49:29;;;;;;;7.35;5.05;;;;;;;26.15;63.52;101096.12;1766648;78;21546;-93
2021/09/12 09:52:01;;;;;;;5.37;4.75;;;;;;;26.16;63.07;101097.39;1820386;78;21073;-93
2021/09/12 09:54:33;;;;;;;6.03;4.80;;;;;;;26.08;62.60;101096.78;1820499;78;21275;-93
2021/09/12 09:56:59;;;;;;;4.62;4.22;;;;;;;26.06;62.10;101101.35;1820512;78;21104;-93
2021/09/12 09:59:30;;;;;;;3.80;3.37;;;;;;;26.01;61.60;101094.34;1820893;78;21096;-93
2021/09/12 10:01:58;;;;;;;6.72;3.98;;;;;;;25.94;61.42;101095.00;1785016;78;21085;-92
2021/09/12 10:04:29;;;;;;;6.33;3.55;;;;;;;26.00;61.43;101094.83;1820813;78;21076;-94
2021/09/12 10:06:57;;;;;;;7.85;4.83;;;;;;;26.06;60.94;101101.35;1820060;77;21838;-93
2021/09/12 10:09:25;;;;;;;4.42;4.05;;;;;;;26.01;60.59;101093.88;1807677;79;21002;-92
2021/09/12 10:12:01;;;;;;;5.15;4.28;;;;;;;25.99;60.57;101097.97;1807262;79;21054;-92
2021/09/12 10:14:37;;;;;;;4.55;3.75;;;;;;;25.98;60.39;101093.52;1782619;79;21045;-93
2021/09/12 10:17:10;;;;;;;5.35;3.40;;;;;;;25.93;60.18;101093.26;1784027;79;20994;-92
2021/09/12 10:19:39;;;;;;;3.83;3.52;;;;;;;25.97;59.89;101092.22;1807384;79;21759;-93
2021/09/12 10:22:10;;;;;;;4.12;3.83;;;;;;;25.94;59.66;101093.66;1807979;79;20994;-93
2021/09/12 10:25:02;;;;;;;4.35;3.87;;;;;;;25.89;59.71;101089.75;1807972;79;21062;-92
2021/09/12 10:27:39;;;;;;;3.98;3.67;;;;;;;25.96;59.74;101094.52;1807875;79;21029;-94
2021/09/12 10:30:27;;;;;;;4.47;4.08;;;;;;;26.06;59.48;101089.21;1806983;79;21030;-94
2021/09/12 10:33:16;;;;;;;4.58;4.10;;;;;;;26.23;59.27;101091.33;1807439;79;21753;-93
2021/09/12 10:35:51;;;;;;;4.70;3.55;;;;;;;26.40;59.08;101092.56;1806962;79;21014;-94
2021/09/12 10:38:34;;;;;;;3.58;3.25;;;;;;;26.55;58.88;101094.22;1807639;79;20982;-94
2021/09/12 10:41:06;;;;;;;7.47;4.05;;;;;;;26.70;58.78;101087.90;1808184;79;21064;-92
2021/09/12 10:43:41;;;;;;;4.42;4.03;;;;;;;26.83;57.99;101083.80;1807949;79;21554;-93
2021/09/12 10:46:16;;;;;;;5.05;3.92;;;;;;;26.82;57.82;101082.50;1807934;79;21693;-94
2021/09/12 10:48:45;;;;;;;4.33;3.50;;;;;;;26.87;57.63;101081.87;1808077;79;21045;-93
2021/09/12 10:51:20;;;;;;;5.83;3.67;;;;;;;26.92;57.19;101074.48;1807890;79;21064;-93
2021/09/12 10:54:01;;;;;;;5.60;3.47;;;;;;;27.01;57.14;101077.27;1807596;79;21507;-93
2021/09/12 10:56:31;;;;;;;5.12;3.83;;;;;;;27.14;57.05;101079.47;1806507;79;21065;-94
2021/09/12 10:59:11;;;;;;;4.50;4.10;;;;;;;27.22;56.74;101075.59;1807569;79;21745;-93
2021/09/12 11:01:46;;;;;;;6.87;4.45;;;;;;;27.28;56.55;101074.02;1807521;79;21006;-93
2021/09/12 11:04:17;;;;;;;7.15;3.90;;;;;;;27.33;56.29;101067.97;1809742;79;21108;-93
2021/09/12 11:06:47;;;;;;;6.80;3.92;;;;;;;27.40;55.95;101071.28;1808051;79;21574;-93
2021/09/12 11:09:23;;;;;;;4.75;4.20;;;;;;;27.39;55.75;101069.06;1807617;78;21002;-93
2021/09/12 11:11:56;;;;;;;4.42;4.03;;;;;;;27.36;55.58;101072.36;1807809;79;22696;-93
2021/09/12 11:14:26;;;;;;;4.17;3.75;;;;;;;27.29;55.33;101068.56;1808497;78;27550;-95
2021/09/12 11:16:53;;;;;;;4.83;3.90;;;;;;;27.23;55.32;101069.22;1808216;79;21033;-95
2021/09/12 11:19:20;;;;;;;4.05;3.70;;;;;;;27.09;55.29;101065.24;1807838;79;20974;-94
2021/09/12 11:21:49;;;;;;;4.17;3.83;;;;;;;26.85;55.26;101065.71;1808176;79;21053;-92
2021/09/12 11:24:24;;;;;;;5.17;4.45;;;;;;;26.70;55.49;101064.95;1758050;79;21840;-92
2021/09/12 11:27:02;;;;;;;5.20;3.98;;;;;;;26.57;55.60;101065.34;1807750;79;20971;-91
2021/09/12 11:29:34;;;;;;;6.85;4.12;;;;;;;26.49;55.75;101064.77;1782423;79;21192;-93